sensor_id;sensor_type;location;lat;lon;timestamp;P1;durP1;ratioP1;P2;durP2;ratioP2
81367;SDS011;70823;50.056;14.398;2023-12-07T00:01:01;11.90;;;8.50;;
81367;SDS011;70823;50.056;14.398;2023-12-07T00:03:26;12.87;;;7.90;;
81367;SDS011;70823;50.056;14.398;2023-12-07T00:05:51;12.80;;;8.03;;
81367;SDS011;70823;50.056;14.398;2023-12-07T00:08:16;12.20;;;8.10;;
81367;SDS011;70823;50.056;14.398;2023-12-07T00:10:42;13.00;;;7.87;;
81367;SDS011;70823;50.056;14.398;2023-12-07T00:13:07;16.40;;;8.47;;
81367;SDS011;70823;50.056;14.398;2023-12-07T00:15:32;12.53;;;7.47;;
81367;SDS011;70823;50.056;14.398;2023-12-07T00:17:58;12.23;;;7.77;;
81367;SDS011;70823;50.056;14.398;2023-12-07T00:20:25;13.73;;;7.95;;
81367;SDS011;70823;50.056;14.398;2023-12-07T00:22:50;12.80;;;7.77;;
81367;SDS011;70823;50.056;14.398;2023-12-07T00:25:15;14.57;;;7.43;;
81367;SDS011;70823;50.056;14.398;2023-12-07T00:27:41;10.87;;;7.30;;
81367;SDS011;70823;50.056;14.398;2023-12-07T00:30:06;11.43;;;7.17;;
81367;SDS011;70823;50.056;14.398;2023-12-07T00:32:31;12.32;;;7.35;;
81367;SDS011;70823;50.056;14.398;2023-12-07T00:34:57;12.53;;;7.97;;
81367;SDS011;70823;50.056;14.398;2023-12-07T00:37:22;9.90;;;7.30;;
81367;SDS011;70823;50.056;14.398;2023-12-07T00:39:47;10.40;;;7.30;;
81367;SDS011;70823;50.056;14.398;2023-12-07T00:42:13;10.87;;;6.77;;
81367;SDS011;70823;50.056;14.398;2023-12-07T00:44:41;15.33;;;7.50;;
81367;SDS011;70823;50.056;14.398;2023-12-07T00:47:06;9.88;;;6.70;;
81367;SDS011;70823;50.056;14.398;2023-12-07T00:49:32;9.93;;;6.83;;
81367;SDS011;70823;50.056;14.398;2023-12-07T00:51:57;11.90;;;7.15;;
81367;SDS011;70823;50.056;14.398;2023-12-07T00:54:23;9.98;;;6.35;;
81367;SDS011;70823;50.056;14.398;2023-12-07T00:56:48;11.40;;;7.00;;
81367;SDS011;70823;50.056;14.398;2023-12-07T00:59:13;11.73;;;7.50;;
81367;SDS011;70823;50.056;14.398;2023-12-07T01:01:38;11.57;;;6.53;;
81367;SDS011;70823;50.056;14.398;2023-12-07T01:04:04;10.10;;;6.63;;
81367;SDS011;70823;50.056;14.398;2023-12-07T01:06:30;9.73;;;6.63;;
81367;SDS011;70823;50.056;14.398;2023-12-07T01:08:56;10.18;;;6.65;;
81367;SDS011;70823;50.056;14.398;2023-12-07T01:11:21;10.33;;;6.60;;
81367;SDS011;70823;50.056;14.398;2023-12-07T01:13:46;10.93;;;6.87;;
81367;SDS011;70823;50.056;14.398;2023-12-07T01:16:12;12.27;;;6.87;;
81367;SDS011;70823;50.056;14.398;2023-12-07T01:18:37;10.30;;;6.67;;
81367;SDS011;70823;50.056;14.398;2023-12-07T01:21:02;9.60;;;6.33;;
81367;SDS011;70823;50.056;14.398;2023-12-07T01:23:28;10.07;;;6.50;;
81367;SDS011;70823;50.056;14.398;2023-12-07T01:25:53;9.50;;;5.75;;
81367;SDS011;70823;50.056;14.398;2023-12-07T01:28:18;9.35;;;6.07;;
81367;SDS011;70823;50.056;14.398;2023-12-07T01:30:44;9.37;;;6.57;;
81367;SDS011;70823;50.056;14.398;2023-12-07T01:33:09;9.93;;;6.20;;
81367;SDS011;70823;50.056;14.398;2023-12-07T01:35:34;9.55;;;5.53;;
81367;SDS011;70823;50.056;14.398;2023-12-07T01:38:00;9.52;;;5.97;;
81367;SDS011;70823;50.056;14.398;2023-12-07T01:40:25;8.93;;;5.63;;
81367;SDS011;70823;50.056;14.398;2023-12-07T01:42:51;8.13;;;5.87;;
81367;SDS011;70823;50.056;14.398;2023-12-07T01:45:17;11.77;;;6.35;;
81367;SDS011;70823;50.056;14.398;2023-12-07T01:47:44;8.35;;;5.68;;
81367;SDS011;70823;50.056;14.398;2023-12-07T01:50:10;8.35;;;5.45;;
81367;SDS011;70823;50.056;14.398;2023-12-07T01:52:36;9.93;;;6.00;;
81367;SDS011;70823;50.056;14.398;2023-12-07T01:55:03;9.15;;;5.95;;
81367;SDS011;70823;50.056;14.398;2023-12-07T01:57:30;9.50;;;6.30;;
81367;SDS011;70823;50.056;14.398;2023-12-07T01:59:55;9.13;;;5.55;;
81367;SDS011;70823;50.056;14.398;2023-12-07T02:02:20;10.13;;;5.57;;
81367;SDS011;70823;50.056;14.398;2023-12-07T02:04:46;8.40;;;6.23;;
81367;SDS011;70823;50.056;14.398;2023-12-07T02:07:11;9.23;;;5.23;;
81367;SDS011;70823;50.056;14.398;2023-12-07T02:09:37;9.45;;;5.60;;
81367;SDS011;70823;50.056;14.398;2023-12-07T02:12:02;9.00;;;5.82;;
81367;SDS011;70823;50.056;14.398;2023-12-07T02:14:28;7.13;;;4.82;;
81367;SDS011;70823;50.056;14.398;2023-12-07T02:16:57;8.20;;;5.18;;
81367;SDS011;70823;50.056;14.398;2023-12-07T02:19:47;8.50;;;5.53;;
81367;SDS011;70823;50.056;14.398;2023-12-07T02:22:22;7.38;;;5.38;;
81367;SDS011;70823;50.056;14.398;2023-12-07T02:25:03;7.93;;;5.15;;
81367;SDS011;70823;50.056;14.398;2023-12-07T02:27:35;7.65;;;5.25;;
81367;SDS011;70823;50.056;14.398;2023-12-07T02:30:11;8.35;;;5.72;;
81367;SDS011;70823;50.056;14.398;2023-12-07T02:32:37;7.50;;;5.15;;
81367;SDS011;70823;50.056;14.398;2023-12-07T02:35:03;7.45;;;5.55;;
81367;SDS011;70823;50.056;14.398;2023-12-07T02:37:30;7.32;;;5.32;;
81367;SDS011;70823;50.056;14.398;2023-12-07T02:39:59;7.15;;;4.75;;
81367;SDS011;70823;50.056;14.398;2023-12-07T02:42:24;7.32;;;4.85;;
81367;SDS011;70823;50.056;14.398;2023-12-07T02:44:52;7.78;;;4.95;;
81367;SDS011;70823;50.056;14.398;2023-12-07T02:47:18;7.93;;;4.93;;
81367;SDS011;70823;50.056;14.398;2023-12-07T02:49:43;7.57;;;4.85;;
81367;SDS011;70823;50.056;14.398;2023-12-07T02:52:08;7.43;;;5.00;;
81367;SDS011;70823;50.056;14.398;2023-12-07T02:54:34;8.27;;;5.23;;
81367;SDS011;70823;50.056;14.398;2023-12-07T02:56:59;7.30;;;5.23;;
81367;SDS011;70823;50.056;14.398;2023-12-07T02:59:24;7.03;;;4.80;;
81367;SDS011;70823;50.056;14.398;2023-12-07T03:01:49;8.17;;;4.93;;
81367;SDS011;70823;50.056;14.398;2023-12-07T03:04:15;6.97;;;4.63;;
81367;SDS011;70823;50.056;14.398;2023-12-07T03:06:40;7.13;;;4.33;;
81367;SDS011;70823;50.056;14.398;2023-12-07T03:09:06;6.87;;;4.57;;
81367;SDS011;70823;50.056;14.398;2023-12-07T03:11:31;6.70;;;4.37;;
81367;SDS011;70823;50.056;14.398;2023-12-07T03:13:56;6.13;;;4.28;;
81367;SDS011;70823;50.056;14.398;2023-12-07T03:16:22;7.00;;;4.80;;
81367;SDS011;70823;50.056;14.398;2023-12-07T03:18:47;7.17;;;4.40;;
81367;SDS011;70823;50.056;14.398;2023-12-07T03:21:12;8.00;;;5.23;;
81367;SDS011;70823;50.056;14.398;2023-12-07T03:23:37;6.33;;;4.40;;
81367;SDS011;70823;50.056;14.398;2023-12-07T03:26:03;6.70;;;4.53;;
81367;SDS011;70823;50.056;14.398;2023-12-07T03:28:28;7.65;;;4.60;;
81367;SDS011;70823;50.056;14.398;2023-12-07T03:30:53;6.83;;;4.33;;
81367;SDS011;70823;50.056;14.398;2023-12-07T03:33:19;8.30;;;4.67;;
81367;SDS011;70823;50.056;14.398;2023-12-07T03:35:44;6.57;;;4.60;;
81367;SDS011;70823;50.056;14.398;2023-12-07T03:38:09;7.00;;;4.17;;
81367;SDS011;70823;50.056;14.398;2023-12-07T03:40:35;7.85;;;5.28;;
81367;SDS011;70823;50.056;14.398;2023-12-07T03:43:00;6.20;;;4.30;;
81367;SDS011;70823;50.056;14.398;2023-12-07T03:45:28;6.07;;;3.85;;
81367;SDS011;70823;50.056;14.398;2023-12-07T03:47:53;6.43;;;4.30;;
81367;SDS011;70823;50.056;14.398;2023-12-07T03:50:18;7.37;;;4.60;;
81367;SDS011;70823;50.056;14.398;2023-12-07T03:52:44;6.63;;;4.20;;
81367;SDS011;70823;50.056;14.398;2023-12-07T03:55:09;6.53;;;4.10;;
81367;SDS011;70823;50.056;14.398;2023-12-07T03:57:35;6.40;;;4.18;;
81367;SDS011;70823;50.056;14.398;2023-12-07T04:00:01;5.37;;;3.80;;
81367;SDS011;70823;50.056;14.398;2023-12-07T04:02:26;5.43;;;4.07;;
81367;SDS011;70823;50.056;14.398;2023-12-07T04:04:51;5.70;;;3.92;;
81367;SDS011;70823;50.056;14.398;2023-12-07T04:07:17;5.45;;;3.70;;
81367;SDS011;70823;50.056;14.398;2023-12-07T04:09:42;5.73;;;4.03;;
81367;SDS011;70823;50.056;14.398;2023-12-07T04:12:08;7.25;;;4.30;;
81367;SDS011;70823;50.056;14.398;2023-12-07T04:14:33;5.37;;;4.30;;
81367;SDS011;70823;50.056;14.398;2023-12-07T04:16:58;5.37;;;3.67;;
81367;SDS011;70823;50.056;14.398;2023-12-07T04:19:24;5.57;;;3.72;;
81367;SDS011;70823;50.056;14.398;2023-12-07T04:21:49;6.10;;;4.30;;
81367;SDS011;70823;50.056;14.398;2023-12-07T04:24:14;6.10;;;3.93;;
81367;SDS011;70823;50.056;14.398;2023-12-07T04:26:40;5.57;;;3.73;;
81367;SDS011;70823;50.056;14.398;2023-12-07T04:29:05;5.77;;;3.80;;
81367;SDS011;70823;50.056;14.398;2023-12-07T04:31:30;4.60;;;3.40;;
81367;SDS011;70823;50.056;14.398;2023-12-07T04:33:55;6.83;;;3.60;;
81367;SDS011;70823;50.056;14.398;2023-12-07T04:36:21;5.03;;;3.70;;
81367;SDS011;70823;50.056;14.398;2023-12-07T04:38:46;5.43;;;3.85;;
81367;SDS011;70823;50.056;14.398;2023-12-07T04:41:11;5.28;;;3.60;;
81367;SDS011;70823;50.056;14.398;2023-12-07T04:43:37;6.03;;;3.67;;
81367;SDS011;70823;50.056;14.398;2023-12-07T04:46:02;6.50;;;3.70;;
81367;SDS011;70823;50.056;14.398;2023-12-07T04:48:28;5.28;;;3.63;;
81367;SDS011;70823;50.056;14.398;2023-12-07T04:50:54;4.93;;;3.70;;
81367;SDS011;70823;50.056;14.398;2023-12-07T04:53:19;6.00;;;3.83;;
81367;SDS011;70823;50.056;14.398;2023-12-07T04:55:44;5.17;;;3.67;;
81367;SDS011;70823;50.056;14.398;2023-12-07T04:58:13;6.07;;;3.50;;
81367;SDS011;70823;50.056;14.398;2023-12-07T05:00:38;5.57;;;3.50;;
81367;SDS011;70823;50.056;14.398;2023-12-07T05:03:04;6.07;;;3.57;;
81367;SDS011;70823;50.056;14.398;2023-12-07T05:05:29;5.53;;;4.17;;
81367;SDS011;70823;50.056;14.398;2023-12-07T05:07:54;5.88;;;3.55;;
81367;SDS011;70823;50.056;14.398;2023-12-07T05:10:20;6.53;;;3.27;;
81367;SDS011;70823;50.056;14.398;2023-12-07T05:12:45;7.10;;;3.35;;
81367;SDS011;70823;50.056;14.398;2023-12-07T05:15:10;5.20;;;3.50;;
81367;SDS011;70823;50.056;14.398;2023-12-07T05:17:36;5.75;;;3.72;;
81367;SDS011;70823;50.056;14.398;2023-12-07T05:20:01;4.63;;;3.13;;
81367;SDS011;70823;50.056;14.398;2023-12-07T05:22:27;4.53;;;3.25;;
81367;SDS011;70823;50.056;14.398;2023-12-07T05:24:53;5.10;;;3.17;;
81367;SDS011;70823;50.056;14.398;2023-12-07T05:27:19;5.45;;;3.50;;
81367;SDS011;70823;50.056;14.398;2023-12-07T05:29:44;4.53;;;2.93;;
81367;SDS011;70823;50.056;14.398;2023-12-07T05:32:09;5.07;;;2.90;;
81367;SDS011;70823;50.056;14.398;2023-12-07T05:34:35;4.60;;;3.30;;
81367;SDS011;70823;50.056;14.398;2023-12-07T05:37:00;4.28;;;3.10;;
81367;SDS011;70823;50.056;14.398;2023-12-07T05:39:26;6.15;;;3.55;;
81367;SDS011;70823;50.056;14.398;2023-12-07T05:41:51;4.67;;;3.00;;
81367;SDS011;70823;50.056;14.398;2023-12-07T05:44:16;5.13;;;3.20;;
81367;SDS011;70823;50.056;14.398;2023-12-07T05:46:46;5.00;;;2.97;;
81367;SDS011;70823;50.056;14.398;2023-12-07T05:49:12;4.65;;;3.35;;
81367;SDS011;70823;50.056;14.398;2023-12-07T05:51:37;4.28;;;2.92;;
81367;SDS011;70823;50.056;14.398;2023-12-07T05:54:03;4.85;;;3.53;;
81367;SDS011;70823;50.056;14.398;2023-12-07T05:56:28;4.20;;;3.17;;
81367;SDS011;70823;50.056;14.398;2023-12-07T05:58:53;5.43;;;3.20;;
81367;SDS011;70823;50.056;14.398;2023-12-07T06:01:19;5.33;;;3.33;;
81367;SDS011;70823;50.056;14.398;2023-12-07T06:03:44;4.03;;;3.00;;
81367;SDS011;70823;50.056;14.398;2023-12-07T06:06:13;5.40;;;3.15;;
81367;SDS011;70823;50.056;14.398;2023-12-07T06:08:38;5.82;;;3.42;;
81367;SDS011;70823;50.056;14.398;2023-12-07T06:11:04;4.32;;;2.95;;
81367;SDS011;70823;50.056;14.398;2023-12-07T06:13:29;7.03;;;3.28;;
81367;SDS011;70823;50.056;14.398;2023-12-07T06:15:54;5.50;;;3.53;;
81367;SDS011;70823;50.056;14.398;2023-12-07T06:18:20;4.47;;;3.07;;
81367;SDS011;70823;50.056;14.398;2023-12-07T06:20:45;3.83;;;2.77;;
81367;SDS011;70823;50.056;14.398;2023-12-07T06:23:10;4.80;;;3.22;;
81367;SDS011;70823;50.056;14.398;2023-12-07T06:25:38;7.30;;;4.22;;
81367;SDS011;70823;50.056;14.398;2023-12-07T06:28:06;7.25;;;5.20;;
81367;SDS011;70823;50.056;14.398;2023-12-07T06:30:32;9.10;;;4.73;;
81367;SDS011;70823;50.056;14.398;2023-12-07T06:32:57;6.10;;;4.78;;
81367;SDS011;70823;50.056;14.398;2023-12-07T06:35:22;7.67;;;5.17;;
81367;SDS011;70823;50.056;14.398;2023-12-07T06:37:48;8.38;;;4.63;;
81367;SDS011;70823;50.056;14.398;2023-12-07T06:40:13;6.93;;;4.40;;
81367;SDS011;70823;50.056;14.398;2023-12-07T06:42:39;5.93;;;4.03;;
81367;SDS011;70823;50.056;14.398;2023-12-07T06:45:04;5.72;;;3.78;;
81367;SDS011;70823;50.056;14.398;2023-12-07T06:47:30;5.53;;;3.63;;
81367;SDS011;70823;50.056;14.398;2023-12-07T06:49:56;5.33;;;3.57;;
81367;SDS011;70823;50.056;14.398;2023-12-07T06:52:21;5.03;;;3.53;;
81367;SDS011;70823;50.056;14.398;2023-12-07T06:54:46;4.57;;;2.97;;
81367;SDS011;70823;50.056;14.398;2023-12-07T06:57:12;6.50;;;3.27;;
81367;SDS011;70823;50.056;14.398;2023-12-07T06:59:37;7.13;;;3.70;;
81367;SDS011;70823;50.056;14.398;2023-12-07T07:02:03;7.30;;;3.63;;
81367;SDS011;70823;50.056;14.398;2023-12-07T07:04:28;5.03;;;3.45;;
81367;SDS011;70823;50.056;14.398;2023-12-07T07:06:54;7.13;;;3.53;;
81367;SDS011;70823;50.056;14.398;2023-12-07T07:09:20;5.30;;;3.70;;
81367;SDS011;70823;50.056;14.398;2023-12-07T07:11:48;5.95;;;3.50;;
81367;SDS011;70823;50.056;14.398;2023-12-07T07:14:14;6.45;;;3.03;;
81367;SDS011;70823;50.056;14.398;2023-12-07T07:16:39;4.78;;;3.40;;
81367;SDS011;70823;50.056;14.398;2023-12-07T07:19:04;6.30;;;3.80;;
81367;SDS011;70823;50.056;14.398;2023-12-07T07:21:30;6.90;;;3.92;;
81367;SDS011;70823;50.056;14.398;2023-12-07T07:23:56;4.85;;;3.15;;
81367;SDS011;70823;50.056;14.398;2023-12-07T07:26:21;4.93;;;3.13;;
81367;SDS011;70823;50.056;14.398;2023-12-07T07:28:47;6.50;;;4.20;;
81367;SDS011;70823;50.056;14.398;2023-12-07T07:31:12;3.90;;;2.53;;
81367;SDS011;70823;50.056;14.398;2023-12-07T07:33:38;4.80;;;3.07;;
81367;SDS011;70823;50.056;14.398;2023-12-07T07:36:03;6.13;;;3.13;;
81367;SDS011;70823;50.056;14.398;2023-12-07T07:38:29;3.83;;;2.92;;
81367;SDS011;70823;50.056;14.398;2023-12-07T07:40:54;4.65;;;3.10;;
81367;SDS011;70823;50.056;14.398;2023-12-07T07:43:19;5.67;;;3.43;;
81367;SDS011;70823;50.056;14.398;2023-12-07T07:45:44;4.57;;;2.93;;
81367;SDS011;70823;50.056;14.398;2023-12-07T07:48:10;4.55;;;3.03;;
81367;SDS011;70823;50.056;14.398;2023-12-07T07:50:37;4.15;;;3.00;;
81367;SDS011;70823;50.056;14.398;2023-12-07T07:53:02;5.20;;;3.00;;
81367;SDS011;70823;50.056;14.398;2023-12-07T07:55:28;4.43;;;2.70;;
81367;SDS011;70823;50.056;14.398;2023-12-07T07:57:54;4.28;;;2.92;;
81367;SDS011;70823;50.056;14.398;2023-12-07T08:00:19;3.90;;;2.63;;
81367;SDS011;70823;50.056;14.398;2023-12-07T08:02:45;4.22;;;2.70;;
81367;SDS011;70823;50.056;14.398;2023-12-07T08:05:11;4.75;;;3.00;;
81367;SDS011;70823;50.056;14.398;2023-12-07T08:07:36;6.07;;;2.80;;
81367;SDS011;70823;50.056;14.398;2023-12-07T08:10:01;4.85;;;2.70;;
81367;SDS011;70823;50.056;14.398;2023-12-07T08:12:28;4.68;;;2.63;;
81367;SDS011;70823;50.056;14.398;2023-12-07T08:14:53;4.30;;;2.90;;
81367;SDS011;70823;50.056;14.398;2023-12-07T08:17:19;5.10;;;2.60;;
81367;SDS011;70823;50.056;14.398;2023-12-07T08:19:44;4.22;;;2.92;;
81367;SDS011;70823;50.056;14.398;2023-12-07T08:22:09;5.00;;;2.67;;
81367;SDS011;70823;50.056;14.398;2023-12-07T08:24:35;5.63;;;3.67;;
81367;SDS011;70823;50.056;14.398;2023-12-07T08:27:02;3.58;;;2.50;;
81367;SDS011;70823;50.056;14.398;2023-12-07T08:29:28;3.30;;;2.60;;
81367;SDS011;70823;50.056;14.398;2023-12-07T08:31:54;4.00;;;2.75;;
81367;SDS011;70823;50.056;14.398;2023-12-07T08:34:19;3.88;;;2.45;;
81367;SDS011;70823;50.056;14.398;2023-12-07T08:36:45;4.07;;;2.47;;
81367;SDS011;70823;50.056;14.398;2023-12-07T08:39:10;4.05;;;2.65;;
81367;SDS011;70823;50.056;14.398;2023-12-07T08:41:36;3.65;;;2.53;;
81367;SDS011;70823;50.056;14.398;2023-12-07T08:44:02;3.65;;;2.38;;
81367;SDS011;70823;50.056;14.398;2023-12-07T08:46:27;3.15;;;2.10;;
81367;SDS011;70823;50.056;14.398;2023-12-07T08:48:52;3.40;;;2.50;;
81367;SDS011;70823;50.056;14.398;2023-12-07T08:51:18;3.85;;;2.50;;
81367;SDS011;70823;50.056;14.398;2023-12-07T08:53:44;4.25;;;2.67;;
81367;SDS011;70823;50.056;14.398;2023-12-07T08:56:09;4.20;;;2.65;;
81367;SDS011;70823;50.056;14.398;2023-12-07T08:58:35;3.35;;;2.42;;
81367;SDS011;70823;50.056;14.398;2023-12-07T09:01:00;3.67;;;2.60;;
81367;SDS011;70823;50.056;14.398;2023-12-07T09:03:26;3.83;;;2.83;;
81367;SDS011;70823;50.056;14.398;2023-12-07T09:05:56;4.40;;;2.60;;
81367;SDS011;70823;50.056;14.398;2023-12-07T09:08:22;3.53;;;2.53;;
81367;SDS011;70823;50.056;14.398;2023-12-07T09:10:47;3.90;;;2.37;;
81367;SDS011;70823;50.056;14.398;2023-12-07T09:13:14;3.83;;;2.30;;
81367;SDS011;70823;50.056;14.398;2023-12-07T09:15:40;4.38;;;2.72;;
81367;SDS011;70823;50.056;14.398;2023-12-07T09:18:05;4.03;;;2.67;;
81367;SDS011;70823;50.056;14.398;2023-12-07T09:20:30;3.47;;;2.33;;
81367;SDS011;70823;50.056;14.398;2023-12-07T09:22:56;3.37;;;2.50;;
81367;SDS011;70823;50.056;14.398;2023-12-07T09:25:22;3.95;;;2.60;;
81367;SDS011;70823;50.056;14.398;2023-12-07T09:27:47;4.35;;;2.80;;
81367;SDS011;70823;50.056;14.398;2023-12-07T09:30:13;3.83;;;2.40;;
81367;SDS011;70823;50.056;14.398;2023-12-07T09:32:39;3.92;;;2.67;;
81367;SDS011;70823;50.056;14.398;2023-12-07T09:35:04;3.70;;;2.47;;
81367;SDS011;70823;50.056;14.398;2023-12-07T09:37:32;4.78;;;2.60;;
81367;SDS011;70823;50.056;14.398;2023-12-07T09:39:57;3.65;;;2.50;;
81367;SDS011;70823;50.056;14.398;2023-12-07T09:42:22;4.10;;;2.30;;
81367;SDS011;70823;50.056;14.398;2023-12-07T09:44:48;3.37;;;2.40;;
81367;SDS011;70823;50.056;14.398;2023-12-07T09:47:13;3.60;;;2.50;;
81367;SDS011;70823;50.056;14.398;2023-12-07T09:49:39;4.65;;;2.67;;
81367;SDS011;70823;50.056;14.398;2023-12-07T09:52:05;8.50;;;3.50;;
81367;SDS011;70823;50.056;14.398;2023-12-07T09:54:32;4.47;;;2.63;;
81367;SDS011;70823;50.056;14.398;2023-12-07T09:56:58;10.88;;;3.50;;
81367;SDS011;70823;50.056;14.398;2023-12-07T09:59:23;16.30;;;4.67;;
81367;SDS011;70823;50.056;14.398;2023-12-07T10:01:48;11.03;;;3.50;;
81367;SDS011;70823;50.056;14.398;2023-12-07T10:06:47;8.60;;;3.67;;
81367;SDS011;70823;50.056;14.398;2023-12-07T10:09:14;8.02;;;3.63;;
81367;SDS011;70823;50.056;14.398;2023-12-07T10:11:40;7.68;;;3.67;;
81367;SDS011;70823;50.056;14.398;2023-12-07T10:14:06;9.68;;;3.53;;
81367;SDS011;70823;50.056;14.398;2023-12-07T10:16:32;8.05;;;3.75;;
81367;SDS011;70823;50.056;14.398;2023-12-07T10:19:12;8.85;;;3.40;;
81367;SDS011;70823;50.056;14.398;2023-12-07T10:21:38;7.28;;;3.50;;
81367;SDS011;70823;50.056;14.398;2023-12-07T10:24:04;6.75;;;3.40;;
81367;SDS011;70823;50.056;14.398;2023-12-07T10:26:30;9.32;;;3.42;;
81367;SDS011;70823;50.056;14.398;2023-12-07T10:28:55;12.32;;;4.07;;
81367;SDS011;70823;50.056;14.398;2023-12-07T10:31:21;8.35;;;3.42;;
81367;SDS011;70823;50.056;14.398;2023-12-07T10:33:47;6.15;;;3.15;;
81367;SDS011;70823;50.056;14.398;2023-12-07T10:36:13;8.32;;;3.92;;
81367;SDS011;70823;50.056;14.398;2023-12-07T10:38:38;6.60;;;3.17;;
81367;SDS011;70823;50.056;14.398;2023-12-07T10:41:06;5.45;;;2.97;;
81367;SDS011;70823;50.056;14.398;2023-12-07T10:43:37;5.45;;;2.80;;
81367;SDS011;70823;50.056;14.398;2023-12-07T10:46:03;8.57;;;2.88;;
81367;SDS011;70823;50.056;14.398;2023-12-07T10:48:30;6.35;;;3.63;;
81367;SDS011;70823;50.056;14.398;2023-12-07T10:50:57;6.88;;;3.22;;
81367;SDS011;70823;50.056;14.398;2023-12-07T10:53:28;6.80;;;3.08;;
81367;SDS011;70823;50.056;14.398;2023-12-07T10:55:57;7.72;;;3.22;;
81367;SDS011;70823;50.056;14.398;2023-12-07T10:58:25;6.03;;;2.78;;
81367;SDS011;70823;50.056;14.398;2023-12-07T11:00:54;5.40;;;3.00;;
81367;SDS011;70823;50.056;14.398;2023-12-07T11:03:20;7.05;;;2.90;;
81367;SDS011;70823;50.056;14.398;2023-12-07T11:05:46;6.93;;;3.03;;
81367;SDS011;70823;50.056;14.398;2023-12-07T11:08:15;5.55;;;2.80;;
81367;SDS011;70823;50.056;14.398;2023-12-07T11:13:36;5.18;;;2.80;;
81367;SDS011;70823;50.056;14.398;2023-12-07T11:16:02;5.20;;;2.80;;
81367;SDS011;70823;50.056;14.398;2023-12-07T11:18:28;6.25;;;2.70;;
81367;SDS011;70823;50.056;14.398;2023-12-07T11:20:57;5.28;;;2.80;;
81367;SDS011;70823;50.056;14.398;2023-12-07T11:23:23;6.13;;;2.90;;
81367;SDS011;70823;50.056;14.398;2023-12-07T11:25:48;6.80;;;2.70;;
81367;SDS011;70823;50.056;14.398;2023-12-07T11:28:15;5.53;;;2.92;;
81367;SDS011;70823;50.056;14.398;2023-12-07T11:30:41;5.75;;;2.80;;
81367;SDS011;70823;50.056;14.398;2023-12-07T11:33:09;5.72;;;2.75;;
81367;SDS011;70823;50.056;14.398;2023-12-07T11:36:03;5.95;;;3.15;;
81367;SDS011;70823;50.056;14.398;2023-12-07T11:40:54;5.37;;;2.60;;
81367;SDS011;70823;50.056;14.398;2023-12-07T11:48:28;4.77;;;2.50;;
81367;SDS011;70823;50.056;14.398;2023-12-07T11:53:26;5.80;;;2.50;;
81367;SDS011;70823;50.056;14.398;2023-12-07T11:55:54;4.40;;;2.50;;
81367;SDS011;70823;50.056;14.398;2023-12-07T11:58:20;5.15;;;2.58;;
81367;SDS011;70823;50.056;14.398;2023-12-07T12:00:46;4.97;;;2.60;;
81367;SDS011;70823;50.056;14.398;2023-12-07T12:03:12;5.83;;;2.47;;
81367;SDS011;70823;50.056;14.398;2023-12-07T12:05:38;3.85;;;2.50;;
81367;SDS011;70823;50.056;14.398;2023-12-07T12:08:05;5.75;;;2.65;;
81367;SDS011;70823;50.056;14.398;2023-12-07T12:10:31;3.95;;;2.53;;
81367;SDS011;70823;50.056;14.398;2023-12-07T12:12:56;5.80;;;3.00;;
81367;SDS011;70823;50.056;14.398;2023-12-07T12:15:21;5.47;;;2.77;;
81367;SDS011;70823;50.056;14.398;2023-12-07T12:17:46;4.10;;;2.60;;
81367;SDS011;70823;50.056;14.398;2023-12-07T12:20:13;4.73;;;2.60;;
81367;SDS011;70823;50.056;14.398;2023-12-07T12:22:42;5.15;;;2.60;;
81367;SDS011;70823;50.056;14.398;2023-12-07T12:25:07;5.68;;;2.80;;
81367;SDS011;70823;50.056;14.398;2023-12-07T12:27:34;5.45;;;3.15;;
81367;SDS011;70823;50.056;14.398;2023-12-07T12:30:00;5.95;;;2.90;;
81367;SDS011;70823;50.056;14.398;2023-12-07T12:32:26;6.70;;;2.70;;
81367;SDS011;70823;50.056;14.398;2023-12-07T12:34:51;3.87;;;2.40;;
81367;SDS011;70823;50.056;14.398;2023-12-07T12:37:17;7.03;;;2.95;;
81367;SDS011;70823;50.056;14.398;2023-12-07T12:39:43;4.72;;;2.55;;
81367;SDS011;70823;50.056;14.398;2023-12-07T12:42:08;3.90;;;2.30;;
81367;SDS011;70823;50.056;14.398;2023-12-07T12:44:36;4.78;;;2.50;;
81367;SDS011;70823;50.056;14.398;2023-12-07T12:47:04;4.38;;;2.47;;
81367;SDS011;70823;50.056;14.398;2023-12-07T12:49:36;4.97;;;2.50;;
81367;SDS011;70823;50.056;14.398;2023-12-07T12:52:02;5.90;;;3.03;;
81367;SDS011;70823;50.056;14.398;2023-12-07T12:54:31;5.50;;;3.00;;
81367;SDS011;70823;50.056;14.398;2023-12-07T12:56:57;5.28;;;2.70;;
81367;SDS011;70823;50.056;14.398;2023-12-07T12:59:23;4.32;;;2.30;;
81367;SDS011;70823;50.056;14.398;2023-12-07T13:01:50;6.78;;;2.72;;
81367;SDS011;70823;50.056;14.398;2023-12-07T13:04:15;4.55;;;2.72;;
81367;SDS011;70823;50.056;14.398;2023-12-07T13:06:40;5.97;;;3.07;;
81367;SDS011;70823;50.056;14.398;2023-12-07T13:09:06;5.75;;;2.75;;
81367;SDS011;70823;50.056;14.398;2023-12-07T13:11:31;4.37;;;2.77;;
81367;SDS011;70823;50.056;14.398;2023-12-07T13:13:56;4.83;;;2.87;;
81367;SDS011;70823;50.056;14.398;2023-12-07T13:16:22;4.80;;;2.92;;
81367;SDS011;70823;50.056;14.398;2023-12-07T13:18:47;6.40;;;2.77;;
81367;SDS011;70823;50.056;14.398;2023-12-07T13:21:12;5.93;;;2.80;;
81367;SDS011;70823;50.056;14.398;2023-12-07T13:23:40;6.07;;;2.95;;
81367;SDS011;70823;50.056;14.398;2023-12-07T13:26:05;5.87;;;2.67;;
81367;SDS011;70823;50.056;14.398;2023-12-07T13:28:31;6.00;;;2.60;;
81367;SDS011;70823;50.056;14.398;2023-12-07T13:30:56;6.80;;;3.08;;
81367;SDS011;70823;50.056;14.398;2023-12-07T13:33:22;5.30;;;2.63;;
81367;SDS011;70823;50.056;14.398;2023-12-07T13:35:48;5.18;;;2.83;;
81367;SDS011;70823;50.056;14.398;2023-12-07T13:38:13;4.47;;;2.75;;
81367;SDS011;70823;50.056;14.398;2023-12-07T13:40:39;4.45;;;2.70;;
81367;SDS011;70823;50.056;14.398;2023-12-07T13:43:04;4.78;;;2.95;;
81367;SDS011;70823;50.056;14.398;2023-12-07T13:45:29;5.33;;;2.57;;
81367;SDS011;70823;50.056;14.398;2023-12-07T13:47:54;4.03;;;2.50;;
81367;SDS011;70823;50.056;14.398;2023-12-07T13:50:20;4.00;;;2.50;;
81367;SDS011;70823;50.056;14.398;2023-12-07T13:52:45;4.40;;;2.50;;
81367;SDS011;70823;50.056;14.398;2023-12-07T13:55:10;3.93;;;2.63;;
81367;SDS011;70823;50.056;14.398;2023-12-07T13:57:36;3.80;;;2.60;;
81367;SDS011;70823;50.056;14.398;2023-12-07T14:00:01;3.90;;;2.50;;
81367;SDS011;70823;50.056;14.398;2023-12-07T14:02:26;4.53;;;2.55;;
81367;SDS011;70823;50.056;14.398;2023-12-07T14:04:53;4.63;;;2.50;;
81367;SDS011;70823;50.056;14.398;2023-12-07T14:07:20;4.68;;;3.30;;
81367;SDS011;70823;50.056;14.398;2023-12-07T14:09:47;4.80;;;2.83;;
81367;SDS011;70823;50.056;14.398;2023-12-07T14:12:13;4.60;;;2.65;;
81367;SDS011;70823;50.056;14.398;2023-12-07T14:14:39;5.25;;;3.17;;
81367;SDS011;70823;50.056;14.398;2023-12-07T14:17:05;4.00;;;2.40;;
81367;SDS011;70823;50.056;14.398;2023-12-07T14:19:31;4.88;;;2.65;;
81367;SDS011;70823;50.056;14.398;2023-12-07T14:21:56;4.40;;;2.70;;
81367;SDS011;70823;50.056;14.398;2023-12-07T14:24:22;4.27;;;2.70;;
81367;SDS011;70823;50.056;14.398;2023-12-07T14:26:48;4.75;;;2.60;;
81367;SDS011;70823;50.056;14.398;2023-12-07T14:29:14;4.57;;;2.17;;
81367;SDS011;70823;50.056;14.398;2023-12-07T14:31:41;4.97;;;2.65;;
81367;SDS011;70823;50.056;14.398;2023-12-07T14:34:06;4.22;;;2.80;;
81367;SDS011;70823;50.056;14.398;2023-12-07T14:36:31;4.77;;;2.50;;
81367;SDS011;70823;50.056;14.398;2023-12-07T14:38:57;4.30;;;2.63;;
81367;SDS011;70823;50.056;14.398;2023-12-07T14:41:22;4.60;;;2.63;;